sensor_id;sensor_type;location;lat;lon;timestamp;P1;durP1;ratioP1;P2;durP2;ratioP2
74415;SDS011;62850;42.428;25.618;2023-03-05T00:01:52;23.88;;;10.05;;
74415;SDS011;62850;42.428;25.618;2023-03-05T00:04:17;20.33;;;8.95;;
74415;SDS011;62850;42.428;25.618;2023-03-05T00:06:43;20.38;;;9.45;;
74415;SDS011;62850;42.428;25.618;2023-03-05T00:09:08;16.50;;;8.65;;
74415;SDS011;62850;42.428;25.618;2023-03-05T00:11:34;16.88;;;8.45;;
74415;SDS011;62850;42.428;25.618;2023-03-05T00:14:00;14.38;;;7.50;;
74415;SDS011;62850;42.428;25.618;2023-03-05T00:16:28;15.18;;;7.90;;
74415;SDS011;62850;42.428;25.618;2023-03-05T00:18:54;14.70;;;7.82;;
74415;SDS011;62850;42.428;25.618;2023-03-05T00:23:47;15.80;;;7.90;;
74415;SDS011;62850;42.428;25.618;2023-03-05T00:26:15;14.40;;;7.05;;
74415;SDS011;62850;42.428;25.618;2023-03-05T00:28:41;13.00;;;6.88;;
74415;SDS011;62850;42.428;25.618;2023-03-05T00:31:07;13.82;;;6.97;;
74415;SDS011;62850;42.428;25.618;2023-03-05T00:33:32;14.73;;;7.40;;
74415;SDS011;62850;42.428;25.618;2023-03-05T00:35:58;16.25;;;7.25;;
74415;SDS011;62850;42.428;25.618;2023-03-05T00:38:26;16.25;;;7.18;;
74415;SDS011;62850;42.428;25.618;2023-03-05T00:40:52;15.98;;;7.72;;
74415;SDS011;62850;42.428;25.618;2023-03-05T00:43:17;12.65;;;6.47;;
74415;SDS011;62850;42.428;25.618;2023-03-05T00:45:42;11.52;;;6.10;;
74415;SDS011;62850;42.428;25.618;2023-03-05T00:48:08;11.70;;;6.13;;
74415;SDS011;62850;42.428;25.618;2023-03-05T00:50:33;14.52;;;6.93;;
74415;SDS011;62850;42.428;25.618;2023-03-05T00:52:59;11.63;;;6.43;;
74415;SDS011;62850;42.428;25.618;2023-03-05T00:55:24;13.23;;;6.28;;
74415;SDS011;62850;42.428;25.618;2023-03-05T00:57:50;12.85;;;6.25;;
74415;SDS011;62850;42.428;25.618;2023-03-05T01:00:15;13.18;;;6.00;;
74415;SDS011;62850;42.428;25.618;2023-03-05T01:02:41;13.73;;;6.40;;
74415;SDS011;62850;42.428;25.618;2023-03-05T01:05:09;13.30;;;7.05;;
74415;SDS011;62850;42.428;25.618;2023-03-05T01:07:35;13.93;;;6.38;;
74415;SDS011;62850;42.428;25.618;2023-03-05T01:10:01;12.70;;;6.70;;
74415;SDS011;62850;42.428;25.618;2023-03-05T01:12:26;12.95;;;6.45;;
74415;SDS011;62850;42.428;25.618;2023-03-05T01:14:52;15.07;;;6.53;;
74415;SDS011;62850;42.428;25.618;2023-03-05T01:17:17;13.68;;;6.15;;
74415;SDS011;62850;42.428;25.618;2023-03-05T01:19:43;14.90;;;6.95;;
74415;SDS011;62850;42.428;25.618;2023-03-05T01:22:08;13.27;;;6.53;;
74415;SDS011;62850;42.428;25.618;2023-03-05T01:24:34;12.13;;;6.22;;
74415;SDS011;62850;42.428;25.618;2023-03-05T01:26:59;16.60;;;6.35;;
74415;SDS011;62850;42.428;25.618;2023-03-05T01:29:25;12.55;;;6.20;;
74415;SDS011;62850;42.428;25.618;2023-03-05T01:31:51;13.70;;;6.18;;
74415;SDS011;62850;42.428;25.618;2023-03-05T01:34:16;15.45;;;6.32;;
74415;SDS011;62850;42.428;25.618;2023-03-05T01:36:42;11.50;;;5.50;;
74415;SDS011;62850;42.428;25.618;2023-03-05T01:39:07;13.90;;;6.60;;
74415;SDS011;62850;42.428;25.618;2023-03-05T01:41:33;14.45;;;6.72;;
74415;SDS011;62850;42.428;25.618;2023-03-05T01:43:59;16.17;;;6.85;;
74415;SDS011;62850;42.428;25.618;2023-03-05T01:46:29;14.18;;;6.78;;
74415;SDS011;62850;42.428;25.618;2023-03-05T01:54:07;14.13;;;7.15;;
74415;SDS011;62850;42.428;25.618;2023-03-05T01:56:35;16.70;;;7.38;;
74415;SDS011;62850;42.428;25.618;2023-03-05T01:59:03;17.92;;;8.27;;
74415;SDS011;62850;42.428;25.618;2023-03-05T02:01:33;15.20;;;7.70;;
74415;SDS011;62850;42.428;25.618;2023-03-05T02:04:08;16.02;;;7.75;;
74415;SDS011;62850;42.428;25.618;2023-03-05T02:06:35;18.75;;;8.73;;
74415;SDS011;62850;42.428;25.618;2023-03-05T02:09:02;15.35;;;7.45;;
74415;SDS011;62850;42.428;25.618;2023-03-05T02:11:28;14.35;;;7.45;;
74415;SDS011;62850;42.428;25.618;2023-03-05T02:13:54;14.88;;;7.30;;
74415;SDS011;62850;42.428;25.618;2023-03-05T02:16:19;17.13;;;8.43;;
74415;SDS011;62850;42.428;25.618;2023-03-05T02:18:45;17.08;;;8.55;;
74415;SDS011;62850;42.428;25.618;2023-03-05T02:21:10;18.55;;;9.30;;
74415;SDS011;62850;42.428;25.618;2023-03-05T02:23:37;17.20;;;8.63;;
74415;SDS011;62850;42.428;25.618;2023-03-05T02:26:07;17.85;;;9.48;;
74415;SDS011;62850;42.428;25.618;2023-03-05T02:28:38;20.15;;;9.93;;
74415;SDS011;62850;42.428;25.618;2023-03-05T02:31:20;24.52;;;12.57;;
74415;SDS011;62850;42.428;25.618;2023-03-05T02:33:47;27.15;;;12.60;;
74415;SDS011;62850;42.428;25.618;2023-03-05T02:36:13;34.85;;;18.67;;
74415;SDS011;62850;42.428;25.618;2023-03-05T02:38:39;34.03;;;18.60;;
74415;SDS011;62850;42.428;25.618;2023-03-05T02:41:06;31.05;;;16.77;;
74415;SDS011;62850;42.428;25.618;2023-03-05T02:43:31;29.45;;;16.13;;
74415;SDS011;62850;42.428;25.618;2023-03-05T02:45:57;30.42;;;16.77;;
74415;SDS011;62850;42.428;25.618;2023-03-05T02:48:22;24.85;;;12.45;;
74415;SDS011;62850;42.428;25.618;2023-03-05T02:50:48;20.17;;;10.73;;
74415;SDS011;62850;42.428;25.618;2023-03-05T02:53:13;17.85;;;9.77;;
74415;SDS011;62850;42.428;25.618;2023-03-05T02:55:39;19.23;;;8.57;;
74415;SDS011;62850;42.428;25.618;2023-03-05T02:58:04;22.75;;;8.80;;
74415;SDS011;62850;42.428;25.618;2023-03-05T03:00:30;19.92;;;8.32;;
74415;SDS011;62850;42.428;25.618;2023-03-05T03:02:55;16.67;;;7.47;;
74415;SDS011;62850;42.428;25.618;2023-03-05T03:05:21;13.10;;;7.07;;
74415;SDS011;62850;42.428;25.618;2023-03-05T03:07:46;17.52;;;6.60;;
74415;SDS011;62850;42.428;25.618;2023-03-05T03:10:12;14.55;;;6.95;;
74415;SDS011;62850;42.428;25.618;2023-03-05T03:12:41;16.55;;;6.80;;
74415;SDS011;62850;42.428;25.618;2023-03-05T03:15:09;13.70;;;5.72;;
74415;SDS011;62850;42.428;25.618;2023-03-05T03:17:36;18.58;;;6.22;;
74415;SDS011;62850;42.428;25.618;2023-03-05T03:20:04;12.73;;;6.10;;
74415;SDS011;62850;42.428;25.618;2023-03-05T03:22:34;14.82;;;6.45;;
74415;SDS011;62850;42.428;25.618;2023-03-05T03:25:00;15.60;;;7.15;;
74415;SDS011;62850;42.428;25.618;2023-03-05T03:27:25;13.85;;;6.75;;
74415;SDS011;62850;42.428;25.618;2023-03-05T03:29:51;14.02;;;6.80;;
74415;SDS011;62850;42.428;25.618;2023-03-05T03:32:17;14.15;;;6.45;;
74415;SDS011;62850;42.428;25.618;2023-03-05T03:34:42;15.25;;;6.72;;
74415;SDS011;62850;42.428;25.618;2023-03-05T03:37:08;16.13;;;6.05;;
74415;SDS011;62850;42.428;25.618;2023-03-05T03:39:35;16.75;;;6.72;;
74415;SDS011;62850;42.428;25.618;2023-03-05T03:42:00;13.77;;;6.15;;
74415;SDS011;62850;42.428;25.618;2023-03-05T03:44:26;13.63;;;6.70;;
74415;SDS011;62850;42.428;25.618;2023-03-05T03:46:51;12.63;;;6.35;;
74415;SDS011;62850;42.428;25.618;2023-03-05T03:49:20;13.45;;;6.15;;
74415;SDS011;62850;42.428;25.618;2023-03-05T03:51:48;14.88;;;6.43;;
74415;SDS011;62850;42.428;25.618;2023-03-05T03:54:14;14.38;;;6.82;;
74415;SDS011;62850;42.428;25.618;2023-03-05T03:56:41;14.63;;;6.43;;
74415;SDS011;62850;42.428;25.618;2023-03-05T03:59:06;13.88;;;6.47;;
74415;SDS011;62850;42.428;25.618;2023-03-05T04:01:32;12.93;;;6.38;;
74415;SDS011;62850;42.428;25.618;2023-03-05T04:03:58;13.40;;;6.90;;
74415;SDS011;62850;42.428;25.618;2023-03-05T04:06:23;12.77;;;5.70;;
74415;SDS011;62850;42.428;25.618;2023-03-05T04:08:49;15.77;;;6.10;;
74415;SDS011;62850;42.428;25.618;2023-03-05T04:11:14;19.83;;;7.28;;
74415;SDS011;62850;42.428;25.618;2023-03-05T04:13:40;12.77;;;6.80;;
74415;SDS011;62850;42.428;25.618;2023-03-05T04:16:06;15.98;;;6.70;;
74415;SDS011;62850;42.428;25.618;2023-03-05T04:18:32;15.45;;;7.32;;
74415;SDS011;62850;42.428;25.618;2023-03-05T04:20:57;14.35;;;7.88;;
74415;SDS011;62850;42.428;25.618;2023-03-05T04:23:23;15.23;;;7.35;;
74415;SDS011;62850;42.428;25.618;2023-03-05T04:25:48;17.17;;;8.15;;
74415;SDS011;62850;42.428;25.618;2023-03-05T04:28:14;21.55;;;8.40;;
74415;SDS011;62850;42.428;25.618;2023-03-05T04:30:39;18.33;;;7.82;;
74415;SDS011;62850;42.428;25.618;2023-03-05T04:33:05;20.77;;;9.60;;
74415;SDS011;62850;42.428;25.618;2023-03-05T04:35:31;18.58;;;8.50;;
74415;SDS011;62850;42.428;25.618;2023-03-05T04:37:56;17.63;;;9.00;;
74415;SDS011;62850;42.428;25.618;2023-03-05T04:40:22;17.58;;;8.35;;
74415;SDS011;62850;42.428;25.618;2023-03-05T04:42:47;17.60;;;8.02;;
74415;SDS011;62850;42.428;25.618;2023-03-05T04:45:13;20.30;;;8.80;;
74415;SDS011;62850;42.428;25.618;2023-03-05T04:47:41;16.58;;;7.97;;
74415;SDS011;62850;42.428;25.618;2023-03-05T04:50:09;17.88;;;8.52;;
74415;SDS011;62850;42.428;25.618;2023-03-05T04:52:39;19.42;;;9.57;;
74415;SDS011;62850;42.428;25.618;2023-03-05T04:55:06;17.38;;;8.40;;
74415;SDS011;62850;42.428;25.618;2023-03-05T04:57:32;18.63;;;8.80;;
74415;SDS011;62850;42.428;25.618;2023-03-05T04:59:58;20.63;;;9.55;;
74415;SDS011;62850;42.428;25.618;2023-03-05T05:02:23;19.85;;;8.68;;
74415;SDS011;62850;42.428;25.618;2023-03-05T05:04:52;19.77;;;9.75;;
74415;SDS011;62850;42.428;25.618;2023-03-05T05:07:18;21.30;;;9.57;;
74415;SDS011;62850;42.428;25.618;2023-03-05T05:09:43;25.15;;;10.07;;
74415;SDS011;62850;42.428;25.618;2023-03-05T05:12:09;25.15;;;9.82;;
74415;SDS011;62850;42.428;25.618;2023-03-05T05:14:34;23.85;;;9.70;;
74415;SDS011;62850;42.428;25.618;2023-03-05T05:17:00;23.77;;;9.45;;
74415;SDS011;62850;42.428;25.618;2023-03-05T05:19:29;21.25;;;9.70;;
74415;SDS011;62850;42.428;25.618;2023-03-05T05:21:55;18.95;;;9.90;;
74415;SDS011;62850;42.428;25.618;2023-03-05T05:24:20;23.38;;;10.18;;
74415;SDS011;62850;42.428;25.618;2023-03-05T05:26:46;24.05;;;9.55;;
74415;SDS011;62850;42.428;25.618;2023-03-05T05:29:11;24.98;;;9.68;;
74415;SDS011;62850;42.428;25.618;2023-03-05T05:31:37;21.25;;;9.60;;
74415;SDS011;62850;42.428;25.618;2023-03-05T05:34:03;22.17;;;10.15;;
74415;SDS011;62850;42.428;25.618;2023-03-05T05:36:28;23.88;;;10.23;;
74415;SDS011;62850;42.428;25.618;2023-03-05T05:38:54;26.33;;;11.95;;
74415;SDS011;62850;42.428;25.618;2023-03-05T05:41:19;25.50;;;11.07;;
74415;SDS011;62850;42.428;25.618;2023-03-05T05:43:45;26.95;;;11.32;;
74415;SDS011;62850;42.428;25.618;2023-03-05T05:46:11;24.52;;;12.60;;
74415;SDS011;62850;42.428;25.618;2023-03-05T05:48:39;23.35;;;10.35;;
74415;SDS011;62850;42.428;25.618;2023-03-05T05:51:05;24.45;;;10.85;;
74415;SDS011;62850;42.428;25.618;2023-03-05T05:53:32;20.50;;;10.48;;
74415;SDS011;62850;42.428;25.618;2023-03-05T05:55:58;30.23;;;11.50;;
74415;SDS011;62850;42.428;25.618;2023-03-05T05:58:23;30.27;;;10.70;;
74415;SDS011;62850;42.428;25.618;2023-03-05T06:00:49;25.38;;;10.63;;
74415;SDS011;62850;42.428;25.618;2023-03-05T06:03:14;25.05;;;11.05;;
74415;SDS011;62850;42.428;25.618;2023-03-05T06:05:40;23.63;;;10.13;;
74415;SDS011;62850;42.428;25.618;2023-03-05T06:08:07;23.60;;;10.48;;
74415;SDS011;62850;42.428;25.618;2023-03-05T06:10:32;26.17;;;10.57;;
74415;SDS011;62850;42.428;25.618;2023-03-05T06:12:58;24.85;;;10.38;;
74415;SDS011;62850;42.428;25.618;2023-03-05T06:15:24;22.90;;;11.10;;
74415;SDS011;62850;42.428;25.618;2023-03-05T06:17:49;26.48;;;11.13;;
74415;SDS011;62850;42.428;25.618;2023-03-05T06:20:15;27.92;;;13.50;;
74415;SDS011;62850;42.428;25.618;2023-03-05T06:22:40;26.63;;;13.07;;
74415;SDS011;62850;42.428;25.618;2023-03-05T06:25:06;29.20;;;16.38;;
74415;SDS011;62850;42.428;25.618;2023-03-05T06:27:33;29.10;;;15.55;;
74415;SDS011;62850;42.428;25.618;2023-03-05T06:29:59;24.88;;;11.60;;
74415;SDS011;62850;42.428;25.618;2023-03-05T06:32:25;25.98;;;12.35;;
74415;SDS011;62850;42.428;25.618;2023-03-05T06:34:50;21.48;;;11.63;;
74415;SDS011;62850;42.428;25.618;2023-03-05T06:37:16;19.95;;;10.07;;
74415;SDS011;62850;42.428;25.618;2023-03-05T06:39:41;21.08;;;9.77;;
74415;SDS011;62850;42.428;25.618;2023-03-05T06:42:07;18.48;;;10.07;;
74415;SDS011;62850;42.428;25.618;2023-03-05T06:44:32;22.40;;;12.43;;
74415;SDS011;62850;42.428;25.618;2023-03-05T06:46:58;23.58;;;11.65;;
74415;SDS011;62850;42.428;25.618;2023-03-05T06:49:23;23.48;;;11.77;;
74415;SDS011;62850;42.428;25.618;2023-03-05T06:51:49;20.20;;;11.48;;
74415;SDS011;62850;42.428;25.618;2023-03-05T06:54:15;20.98;;;11.02;;
74415;SDS011;62850;42.428;25.618;2023-03-05T06:56:42;20.48;;;10.45;;
74415;SDS011;62850;42.428;25.618;2023-03-05T06:59:10;20.50;;;10.13;;
74415;SDS011;62850;42.428;25.618;2023-03-05T07:01:36;20.77;;;10.43;;
74415;SDS011;62850;42.428;25.618;2023-03-05T07:04:02;21.60;;;9.77;;
74415;SDS011;62850;42.428;25.618;2023-03-05T07:06:32;19.10;;;11.23;;
74415;SDS011;62850;42.428;25.618;2023-03-05T07:08:59;24.25;;;12.40;;
74415;SDS011;62850;42.428;25.618;2023-03-05T07:11:26;21.13;;;11.35;;
74415;SDS011;62850;42.428;25.618;2023-03-05T07:13:52;20.42;;;10.35;;
74415;SDS011;62850;42.428;25.618;2023-03-05T07:16:21;22.23;;;10.60;;
74415;SDS011;62850;42.428;25.618;2023-03-05T07:18:49;21.52;;;10.40;;
74415;SDS011;62850;42.428;25.618;2023-03-05T07:21:19;22.42;;;10.52;;
74415;SDS011;62850;42.428;25.618;2023-03-05T07:23:46;18.52;;;9.60;;
74415;SDS011;62850;42.428;25.618;2023-03-05T07:26:12;21.25;;;10.38;;
74415;SDS011;62850;42.428;25.618;2023-03-05T07:28:37;21.52;;;9.85;;
74415;SDS011;62850;42.428;25.618;2023-03-05T07:31:04;20.65;;;11.30;;
74415;SDS011;62850;42.428;25.618;2023-03-05T07:33:31;21.73;;;10.02;;
74415;SDS011;62850;42.428;25.618;2023-03-05T07:35:59;21.40;;;9.55;;
74415;SDS011;62850;42.428;25.618;2023-03-05T07:38:25;20.92;;;9.90;;
74415;SDS011;62850;42.428;25.618;2023-03-05T07:40:51;21.55;;;10.05;;
74415;SDS011;62850;42.428;25.618;2023-03-05T07:43:16;17.23;;;9.85;;
74415;SDS011;62850;42.428;25.618;2023-03-05T07:45:43;19.02;;;10.57;;
74415;SDS011;62850;42.428;25.618;2023-03-05T07:48:14;23.67;;;11.02;;
74415;SDS011;62850;42.428;25.618;2023-03-05T07:50:41;29.65;;;11.32;;
74415;SDS011;62850;42.428;25.618;2023-03-05T07:53:07;22.98;;;11.05;;
74415;SDS011;62850;42.428;25.618;2023-03-05T07:55:33;22.88;;;11.20;;
74415;SDS011;62850;42.428;25.618;2023-03-05T07:57:59;23.65;;;10.27;;
74415;SDS011;62850;42.428;25.618;2023-03-05T08:00:24;22.63;;;10.57;;
74415;SDS011;62850;42.428;25.618;2023-03-05T08:02:50;22.33;;;10.32;;
74415;SDS011;62850;42.428;25.618;2023-03-05T08:05:15;19.98;;;11.02;;
74415;SDS011;62850;42.428;25.618;2023-03-05T08:07:41;21.48;;;10.55;;
74415;SDS011;62850;42.428;25.618;2023-03-05T08:10:07;33.40;;;11.20;;
74415;SDS011;62850;42.428;25.618;2023-03-05T08:12:33;20.88;;;10.75;;
74415;SDS011;62850;42.428;25.618;2023-03-05T08:14:59;20.10;;;10.68;;
74415;SDS011;62850;42.428;25.618;2023-03-05T08:17:24;19.98;;;10.55;;
74415;SDS011;62850;42.428;25.618;2023-03-05T08:19:50;26.33;;;11.45;;
74415;SDS011;62850;42.428;25.618;2023-03-05T08:22:15;23.48;;;11.75;;
74415;SDS011;62850;42.428;25.618;2023-03-05T08:24:44;22.92;;;11.48;;
74415;SDS011;62850;42.428;25.618;2023-03-05T08:27:09;25.15;;;11.48;;
74415;SDS011;62850;42.428;25.618;2023-03-05T08:29:35;22.83;;;11.10;;
74415;SDS011;62850;42.428;25.618;2023-03-05T08:32:00;22.02;;;11.30;;
74415;SDS011;62850;42.428;25.618;2023-03-05T08:34:26;23.30;;;11.05;;
74415;SDS011;62850;42.428;25.618;2023-03-05T08:36:51;31.60;;;13.20;;
74415;SDS011;62850;42.428;25.618;2023-03-05T08:39:17;26.13;;;12.32;;
74415;SDS011;62850;42.428;25.618;2023-03-05T08:41:42;25.52;;;12.65;;
74415;SDS011;62850;42.428;25.618;2023-03-05T08:44:08;25.70;;;12.32;;
74415;SDS011;62850;42.428;25.618;2023-03-05T08:46:33;33.65;;;14.50;;
74415;SDS011;62850;42.428;25.618;2023-03-05T08:48:59;31.58;;;12.93;;
74415;SDS011;62850;42.428;25.618;2023-03-05T08:51:25;26.52;;;11.98;;
74415;SDS011;62850;42.428;25.618;2023-03-05T08:53:51;26.67;;;12.10;;
74415;SDS011;62850;42.428;25.618;2023-03-05T08:56:18;24.52;;;11.20;;
74415;SDS011;62850;42.428;25.618;2023-03-05T08:58:43;22.08;;;10.60;;
74415;SDS011;62850;42.428;25.618;2023-03-05T09:01:10;22.80;;;11.75;;
74415;SDS011;62850;42.428;25.618;2023-03-05T09:03:37;22.85;;;12.15;;
74415;SDS011;62850;42.428;25.618;2023-03-05T09:06:04;24.52;;;12.02;;
74415;SDS011;62850;42.428;25.618;2023-03-05T09:08:31;23.40;;;11.70;;
74415;SDS011;62850;42.428;25.618;2023-03-05T09:10:57;29.25;;;12.32;;
74415;SDS011;62850;42.428;25.618;2023-03-05T09:13:25;23.70;;;12.02;;
74415;SDS011;62850;42.428;25.618;2023-03-05T09:15:54;23.73;;;13.13;;
74415;SDS011;62850;42.428;25.618;2023-03-05T09:18:28;28.88;;;13.07;;
74415;SDS011;62850;42.428;25.618;2023-03-05T09:20:54;24.67;;;12.18;;
74415;SDS011;62850;42.428;25.618;2023-03-05T09:23:20;21.48;;;12.93;;
74415;SDS011;62850;42.428;25.618;2023-03-05T09:25:46;26.80;;;13.32;;
74415;SDS011;62850;42.428;25.618;2023-03-05T09:28:13;22.13;;;11.40;;
74415;SDS011;62850;42.428;25.618;2023-03-05T09:30:39;25.70;;;11.75;;
74415;SDS011;62850;42.428;25.618;2023-03-05T09:33:06;26.30;;;12.23;;
74415;SDS011;62850;42.428;25.618;2023-03-05T09:35:33;26.67;;;12.52;;
74415;SDS011;62850;42.428;25.618;2023-03-05T09:38:02;22.85;;;12.60;;
74415;SDS011;62850;42.428;25.618;2023-03-05T09:40:36;23.95;;;13.95;;
74415;SDS011;62850;42.428;25.618;2023-03-05T09:51:28;23.92;;;11.65;;
74415;SDS011;62850;42.428;25.618;2023-03-05T09:54:05;22.60;;;12.13;;
74415;SDS011;62850;42.428;25.618;2023-03-05T09:56:44;24.45;;;11.73;;
74415;SDS011;62850;42.428;25.618;2023-03-05T10:02:18;19.88;;;10.13;;
74415;SDS011;62850;42.428;25.618;2023-03-05T10:04:50;22.75;;;10.68;;
74415;SDS011;62850;42.428;25.618;2023-03-05T10:07:30;19.23;;;10.27;;
74415;SDS011;62850;42.428;25.618;2023-03-05T10:10:02;18.17;;;9.93;;
74415;SDS011;62850;42.428;25.618;2023-03-05T10:15:13;18.80;;;11.40;;
74415;SDS011;62850;42.428;25.618;2023-03-05T10:29:12;15.40;;;8.40;;
74415;SDS011;62850;42.428;25.618;2023-03-05T10:31:40;18.38;;;8.88;;
74415;SDS011;62850;42.428;25.618;2023-03-05T10:34:33;17.13;;;8.55;;
74415;SDS011;62850;42.428;25.618;2023-03-05T10:42:58;17.23;;;9.40;;
74415;SDS011;62850;42.428;25.618;2023-03-05T10:45:29;20.05;;;9.15;;
74415;SDS011;62850;42.428;25.618;2023-03-05T10:50:45;16.50;;;8.60;;
74415;SDS011;62850;42.428;25.618;2023-03-05T10:55:43;16.63;;;9.02;;
74415;SDS011;62850;42.428;25.618;2023-03-05T10:58:09;15.85;;;7.95;;
74415;SDS011;62850;42.428;25.618;2023-03-05T11:00:37;16.70;;;9.07;;
74415;SDS011;62850;42.428;25.618;2023-03-05T11:08:21;17.00;;;7.75;;
74415;SDS011;62850;42.428;25.618;2023-03-05T11:13:40;18.23;;;9.10;;
74415;SDS011;62850;42.428;25.618;2023-03-05T11:16:18;16.08;;;8.77;;
74415;SDS011;62850;42.428;25.618;2023-03-05T11:18:46;18.08;;;9.52;;
74415;SDS011;62850;42.428;25.618;2023-03-05T11:21:23;17.27;;;9.10;;
74415;SDS011;62850;42.428;25.618;2023-03-05T11:24:02;15.65;;;8.57;;
74415;SDS011;62850;42.428;25.618;2023-03-05T11:26:37;18.25;;;8.60;;
74415;SDS011;62850;42.428;25.618;2023-03-05T11:29:32;15.13;;;8.30;;
74415;SDS011;62850;42.428;25.618;2023-03-05T11:32:14;20.15;;;9.32;;
74415;SDS011;62850;42.428;25.618;2023-03-05T11:34:45;28.25;;;9.30;;
74415;SDS011;62850;42.428;25.618;2023-03-05T11:37:18;24.67;;;9.75;;
74415;SDS011;62850;42.428;25.618;2023-03-05T11:42:40;17.40;;;8.65;;
74415;SDS011;62850;42.428;25.618;2023-03-05T11:45:13;18.90;;;8.95;;
74415;SDS011;62850;42.428;25.618;2023-03-05T11:50:16;20.63;;;8.98;;
74415;SDS011;62850;42.428;25.618;2023-03-05T11:52:47;21.58;;;8.88;;
74415;SDS011;62850;42.428;25.618;2023-03-05T11:55:19;17.83;;;8.90;;
74415;SDS011;62850;42.428;25.618;2023-03-05T12:00:41;20.42;;;9.63;;
74415;SDS011;62850;42.428;25.618;2023-03-05T12:03:13;16.00;;;8.38;;
74415;SDS011;62850;42.428;25.618;2023-03-05T12:05:44;16.75;;;9.15;;
74415;SDS011;62850;42.428;25.618;2023-03-05T12:08:19;20.25;;;10.25;;
74415;SDS011;62850;42.428;25.618;2023-03-05T12:10:49;24.20;;;9.82;;
74415;SDS011;62850;42.428;25.618;2023-03-05T12:13:30;19.88;;;9.98;;
74415;SDS011;62850;42.428;25.618;2023-03-05T12:21:55;18.10;;;9.13;;
74415;SDS011;62850;42.428;25.618;2023-03-05T12:47:43;18.35;;;9.15;;
74415;SDS011;62850;42.428;25.618;2023-03-05T12:52:55;19.80;;;9.30;;
74415;SDS011;62850;42.428;25.618;2023-03-05T12:55:31;22.10;;;10.05;;
74415;SDS011;62850;42.428;25.618;2023-03-05T12:58:02;17.77;;;9.82;;
74415;SDS011;62850;42.428;25.618;2023-03-05T13:03:16;22.48;;;9.63;;
74415;SDS011;62850;42.428;25.618;2023-03-05T13:05:55;18.20;;;8.63;;
74415;SDS011;62850;42.428;25.618;2023-03-05T13:08:27;20.85;;;9.50;;
74415;SDS011;62850;42.428;25.618;2023-03-05T13:13:24;20.45;;;9.07;;
74415;SDS011;62850;42.428;25.618;2023-03-05T13:15:51;21.30;;;8.98;;
74415;SDS011;62850;42.428;25.618;2023-03-05T13:18:18;19.05;;;9.23;;
74415;SDS011;62850;42.428;25.618;2023-03-05T13:20:59;18.83;;;9.20;;
74415;SDS011;62850;42.428;25.618;2023-03-05T13:23:48;21.80;;;10.48;;
74415;SDS011;62850;42.428;25.618;2023-03-05T13:26:27;23.33;;;10.02;;
74415;SDS011;62850;42.428;25.618;2023-03-05T13:29:04;16.88;;;9.20;;
74415;SDS011;62850;42.428;25.618;2023-03-05T13:31:47;18.33;;;9.13;;
74415;SDS011;62850;42.428;25.618;2023-03-05T13:34:45;17.77;;;8.55;;
74415;SDS011;62850;42.428;25.618;2023-03-05T13:37:18;15.90;;;8.32;;
74415;SDS011;62850;42.428;25.618;2023-03-05T13:42:25;18.58;;;9.35;;
74415;SDS011;62850;42.428;25.618;2023-03-05T13:44:54;21.40;;;9.90;;
74415;SDS011;62850;42.428;25.618;2023-03-05T13:47:26;22.88;;;10.20;;
74415;SDS011;62850;42.428;25.618;2023-03-05T13:50:00;17.48;;;9.55;;
74415;SDS011;62850;42.428;25.618;2023-03-05T13:52:30;19.55;;;8.95;;
74415;SDS011;62850;42.428;25.618;2023-03-05T13:54:58;18.05;;;8.77;;
74415;SDS011;62850;42.428;25.618;2023-03-05T13:57:44;16.85;;;9.65;;
74415;SDS011;62850;42.428;25.618;2023-03-05T14:00:34;21.33;;;10.10;;
74415;SDS011;62850;42.428;25.618;2023-03-05T14:03:07;19.77;;;9.95;;
74415;SDS011;62850;42.428;25.618;2023-03-05T14:05:35;21.83;;;10.25;;
74415;SDS011;62850;42.428;25.618;2023-03-05T14:08:01;21.23;;;9.95;;
74415;SDS011;62850;42.428;25.618;2023-03-05T14:10:32;20.58;;;10.68;;
74415;SDS011;62850;42.428;25.618;2023-03-05T14:13:02;27.58;;;11.95;;
74415;SDS011;62850;42.428;25.618;2023-03-05T14:15:31;31.45;;;16.15;;
74415;SDS011;62850;42.428;25.618;2023-03-05T14:20:37;21.85;;;11.23;;
74415;SDS011;62850;42.428;25.618;2023-03-05T14:23:31;22.20;;;10.50;;
74415;SDS011;62850;42.428;25.618;2023-03-05T14:26:26;19.25;;;10.60;;
74415;SDS011;62850;42.428;25.618;2023-03-05T14:28:58;23.50;;;9.82;;
74415;SDS011;62850;42.428;25.618;2023-03-05T14:34:24;22.15;;;10.27;;
74415;SDS011;62850;42.428;25.618;2023-03-05T14:42:11;21.65;;;9.63;;
74415;SDS011;62850;42.428;25.618;2023-03-05T14:44:56;19.38;;;8.48;;
74415;SDS011;62850;42.428;25.618;2023-03-05T14:47:24;21.58;;;9.43;;
74415;SDS011;62850;42.428;25.618;2023-03-05T14:49:50;17.52;;;8.43;;
74415;SDS011;62850;42.428;25.618;2023-03-05T14:52:16;21.13;;;9.02;;
74415;SDS011;62850;42.428;25.618;2023-03-05T14:54:43;20.25;;;10.18;;
74415;SDS011;62850;42.428;25.618;2023-03-05T14:57:20;18.98;;;9.13;;
74415;SDS011;62850;42.428;25.618;2023-03-05T14:59:47;18.17;;;9.00;;
74415;SDS011;62850;42.428;25.618;2023-03-05T15:02:17;19.77;;;9.95;;
74415;SDS011;62850;42.428;25.618;2023-03-05T15:04:44;20.33;;;9.38;;
74415;SDS011;62850;42.428;25.618;2023-03-05T15:07:28;17.30;;;9.10;;
74415;SDS011;62850;42.428;25.618;2023-03-05T15:09:55;22.98;;;11.40;;
74415;SDS011;62850;42.428;25.618;2023-03-05T15:12:20;23.10;;;10.63;;
74415;SDS011;62850;42.428;25.618;2023-03-05T15:14:49;23.55;;;10.68;;
74415;SDS011;62850;42.428;25.618;2023-03-05T15:17:25;22.58;;;12.00;;
74415;SDS011;62850;42.428;25.618;2023-03-05T15:20:02;22.88;;;10.80;;
74415;SDS011;62850;42.428;25.618;2023-03-05T15:24:57;24.27;;;11.32;;
74415;SDS011;62850;42.428;25.618;2023-03-05T15:27:22;28.63;;;11.52;;
74415;SDS011;62850;42.428;25.618;2023-03-05T15:29:48;22.70;;;10.05;;
74415;SDS011;62850;42.428;25.618;2023-03-05T15:32:13;18.98;;;9.45;;
74415;SDS011;62850;42.428;25.618;2023-03-05T15:34:39;22.13;;;9.98;;
74415;SDS011;62850;42.428;25.618;2023-03-05T15:37:04;21.38;;;10.23;;
74415;SDS011;62850;42.428;25.618;2023-03-05T15:39:30;19.25;;;10.13;;
74415;SDS011;62850;42.428;25.618;2023-03-05T15:41:55;25.55;;;13.77;;
74415;SDS011;62850;42.428;25.618;2023-03-05T15:44:21;28.10;;;14.75;;
74415;SDS011;62850;42.428;25.618;2023-03-05T15:46:47;48.55;;;21.83;;
74415;SDS011;62850;42.428;25.618;2023-03-05T15:49:13;46.42;;;22.00;;
74415;SDS011;62850;42.428;25.618;2023-03-05T15:51:38;41.28;;;20.02;;
74415;SDS011;62850;42.428;25.618;2023-03-05T15:54:04;38.45;;;21.13;;
74415;SDS011;62850;42.428;25.618;2023-03-05T15:56:29;47.35;;;25.20;;
74415;SDS011;62850;42.428;25.618;2023-03-05T15:58:55;58.65;;;27.33;;
74415;SDS011;62850;42.428;25.618;2023-03-05T16:01:20;38.58;;;20.15;;
74415;SDS011;62850;42.428;25.618;2023-03-05T16:03:47;39.28;;;18.52;;
74415;SDS011;62850;42.428;25.618;2023-03-05T16:06:16;35.28;;;16.48;;
74415;SDS011;62850;42.428;25.618;2023-03-05T16:08:46;36.40;;;18.55;;
74415;SDS011;62850;42.428;25.618;2023-03-05T16:11:13;50.33;;;22.30;;
74415;SDS011;62850;42.428;25.618;2023-03-05T16:13:39;40.47;;;20.40;;
74415;SDS011;62850;42.428;25.618;2023-03-05T16:16:06;34.50;;;19.10;;